TimeMST,TemperatureF,Dew PointF,Humidity,Sea Level PressureIn,VisibilityMPH,Wind Direction,Wind SpeedMPH,Gust SpeedMPH,PrecipitationIn,Events,Conditions,WindDirDegrees,DateUTC
12:15 AM,28.4,3.2,34,30.11,10.0,NNE,9.2,-,N/A,,Clear,30,2012-12-13 07:15:00
12:35 AM,32.0,3.2,30,30.11,10.0,NNE,8.1,-,N/A,,Clear,30,2012-12-13 07:35:00
12:55 AM,32.0,3.2,30,30.11,10.0,NNE,8.1,-,N/A,,Clear,20,2012-12-13 07:55:00
1:15 AM,32.0,3.2,30,30.12,10.0,NNW,3.5,-,N/A,,Clear,340,2012-12-13 08:15:00
1:35 AM,35.6,5.0,28,30.13,10.0,Calm,Calm,-,N/A,,Clear,0,2012-12-13 08:35:00
1:55 AM,37.4,6.8,28,30.13,10.0,Calm,Calm,-,N/A,,Clear,0,2012-12-13 08:55:00
2:15 AM,30.2,5.0,34,30.12,10.0,NE,3.5,-,N/A,,Clear,40,2012-12-13 09:15:00
2:35 AM,28.4,3.2,34,30.12,10.0,North,3.5,-,N/A,,Clear,360,2012-12-13 09:35:00
2:55 AM,32.0,5.0,32,30.12,10.0,North,4.6,-,N/A,,Clear,350,2012-12-13 09:55:00
3:15 AM,28.4,5.0,37,30.11,10.0,North,5.8,-,N/A,,Clear,10,2012-12-13 10:15:00
3:35 AM,28.4,3.2,34,30.10,10.0,NNE,5.8,-,N/A,,Clear,20,2012-12-13 10:35:00
3:55 AM,32.0,5.0,32,30.10,10.0,North,6.9,-,N/A,,Clear,360,2012-12-13 10:55:00
4:15 AM,32.0,5.0,32,30.10,10.0,North,6.9,-,N/A,,Clear,350,2012-12-13 11:15:00
4:35 AM,28.4,5.0,37,30.10,10.0,North,6.9,-,N/A,,Clear,10,2012-12-13 11:35:00
4:55 AM,30.2,5.0,34,30.10,10.0,North,8.1,-,N/A,,Clear,360,2012-12-13 11:55:00
5:15 AM,32.0,5.0,32,30.10,10.0,North,8.1,-,N/A,,Clear,10,2012-12-13 12:15:00
5:35 AM,32.0,6.8,35,30.09,10.0,North,8.1,-,N/A,,Clear,360,2012-12-13 12:35:00
5:55 AM,32.0,6.8,35,30.09,10.0,North,5.8,-,N/A,,Clear,360,2012-12-13 12:55:00
6:15 AM,32.0,6.8,35,30.10,10.0,Calm,Calm,-,N/A,,Clear,0,2012-12-13 13:15:00
6:35 AM,21.2,5.0,50,30.12,10.0,SSE,6.9,-,N/A,,Clear,150,2012-12-13 13:35:00
6:55 AM,19.4,1.4,46,30.14,10.0,South,10.4,-,N/A,,Clear,170,2012-12-13 13:55:00
7:15 AM,21.2,3.2,46,30.14,10.0,SE,6.9,-,N/A,,Clear,140,2012-12-13 14:15:00
7:35 AM,23.0,1.4,39,30.13,10.0,East,4.6,-,N/A,,Clear,100,2012-12-13 14:35:00
7:55 AM,28.4,5.0,37,30.13,10.0,NE,5.8,-,N/A,,Clear,40,2012-12-13 14:55:00
8:15 AM,33.8,6.8,32,30.13,10.0,West,3.5,-,N/A,,Clear,270,2012-12-13 15:15:00
8:35 AM,35.6,6.8,30,30.14,10.0,West,3.5,-,N/A,,Clear,270,2012-12-13 15:35:00
8:55 AM,39.2,6.8,26,30.14,10.0,Calm,Calm,-,N/A,,Clear,0,2012-12-13 15:55:00
9:15 AM,41.0,8.6,26,30.16,10.0,WSW,3.5,-,N/A,,Clear,250,2012-12-13 16:15:00
9:35 AM,44.6,8.6,23,30.15,10.0,SE,4.6,-,N/A,,Clear,140,2012-12-13 16:35:00
9:55 AM,46.4,10.4,23,30.15,10.0,Calm,Calm,-,N/A,,Clear,0,2012-12-13 16:55:00
10:15 AM,48.2,10.4,22,30.14,10.0,West,3.5,-,N/A,,Clear,280,2012-12-13 17:15:00
10:35 AM,50.0,12.2,22,30.14,10.0,Calm,Calm,-,N/A,,Clear,0,2012-12-13 17:35:00
10:55 AM,53.6,14.0,21,30.14,10.0,WSW,5.8,-,N/A,,Clear,250,2012-12-13 17:55:00
11:15 AM,53.6,14.0,21,30.13,10.0,SE,4.6,-,N/A,,Clear,140,2012-12-13 18:15:00
11:35 AM,53.6,14.0,21,30.12,10.0,Calm,Calm,-,N/A,,Clear,0,2012-12-13 18:35:00
11:55 AM,55.4,14.0,20,30.11,10.0,South,5.8,-,N/A,,Clear,190,2012-12-13 18:55:00
12:15 PM,57.2,15.8,20,30.09,10.0,SSE,8.1,-,N/A,,Clear,160,2012-12-13 19:15:00
12:35 PM,59.0,15.8,19,30.07,10.0,South,6.9,-,N/A,,Clear,170,2012-12-13 19:35:00
12:55 PM,59.0,17.6,20,30.06,10.0,SSW,8.1,-,N/A,,Clear,210,2012-12-13 19:55:00
1:15 PM,60.8,17.6,19,30.05,10.0,SSW,9.2,-,N/A,,Clear,200,2012-12-13 20:15:00
1:35 PM,62.6,17.6,18,30.04,10.0,SSW,9.2,-,N/A,,Clear,200,2012-12-13 20:35:00
1:55 PM,62.6,17.6,18,30.04,10.0,SW,10.4,-,N/A,,Clear,220,2012-12-13 20:55:00
2:15 PM,62.6,17.6,18,30.03,10.0,SSW,8.1,-,N/A,,Clear,200,2012-12-13 21:15:00
2:35 PM,62.6,19.4,19,30.02,10.0,SW,6.9,-,N/A,,Clear,220,2012-12-13 21:35:00
2:55 PM,62.6,19.4,19,30.02,10.0,SW,9.2,-,N/A,,Clear,220,2012-12-13 21:55:00
3:15 PM,62.6,19.4,19,30.02,10.0,SSW,11.5,-,N/A,,Clear,200,2012-12-13 22:15:00
3:35 PM,62.6,19.4,19,30.02,10.0,SSW,9.2,-,N/A,,Clear,200,2012-12-13 22:35:00
6:15 PM,50.0,17.6,28,30.01,10.0,South,8.1,-,N/A,,Clear,180,2012-12-14 01:15:00
6:35 PM,48.2,17.6,30,30.01,10.0,South,4.6,-,N/A,,Clear,170,2012-12-14 01:35:00
6:55 PM,48.2,15.8,27,30.01,10.0,Calm,Calm,-,N/A,,Clear,0,2012-12-14 01:55:00
7:15 PM,46.4,15.8,29,30.00,10.0,Calm,Calm,-,N/A,,Clear,0,2012-12-14 02:15:00
7:35 PM,42.8,14.0,31,30.00,10.0,NE,4.6,-,N/A,,Clear,50,2012-12-14 02:35:00
7:55 PM,44.6,15.8,31,29.99,10.0,Calm,Calm,-,N/A,,Clear,0,2012-12-14 02:55:00
8:15 PM,44.6,15.8,31,30.00,10.0,ENE,3.5,-,N/A,,Clear,60,2012-12-14 03:15:00
8:35 PM,46.4,15.8,29,29.99,10.0,Calm,Calm,-,N/A,,Clear,0,2012-12-14 03:35:00
8:55 PM,46.4,15.8,29,29.99,10.0,Calm,Calm,-,N/A,,Clear,0,2012-12-14 03:55:00
9:15 PM,46.4,15.8,29,29.99,10.0,Calm,Calm,-,N/A,,Clear,0,2012-12-14 04:15:00
9:35 PM,46.4,14.0,27,29.99,10.0,WSW,3.5,-,N/A,,Clear,250,2012-12-14 04:35:00
9:55 PM,46.4,15.8,29,29.98,10.0,SW,4.6,-,N/A,,Clear,220,2012-12-14 04:55:00
10:15 PM,46.4,15.8,29,29.99,10.0,West,3.5,-,N/A,,Clear,260,2012-12-14 05:15:00
10:35 PM,46.4,15.8,29,29.98,10.0,NW,5.8,-,N/A,,Clear,320,2012-12-14 05:35:00
11:15 PM,46.4,15.8,29,29.96,10.0,North,8.1,-,N/A,,Clear,10,2012-12-14 06:15:00
11:35 PM,46.4,15.8,29,29.95,10.0,North,9.2,-,N/A,,Partly Cloudy,350,2012-12-14 06:35:00
11:55 PM,46.4,15.8,29,29.93,10.0,North,5.8,-,N/A,,Mostly Cloudy,350,2012-12-14 06:55:00